Time;durP1;ratioP1;P1;durP2;ratioP2;P2;SDS_P1;SDS_P2;PMS_P1;PMS_P2;Temp;Humidity;BMP_temperature;BMP_pressure;BME280_temperature;BME280_humidity;BME280_pressure;Samples;Min_cycle;Max_cycle;Signal;HPM_P1;HPM_P2
2022/11/05 00:09:31;;;;;;;7.20;4.80;;;17.40;61.40;;;;;;5016055;28;20660;-65
2022/11/05 00:17:47;;;;;;;5.80;4.18;;;17.40;61.40;;;;;;5014845;28;20701;-65
2022/11/05 00:20:14;;;;;;;7.47;4.53;;;17.30;61.20;;;;;;5015822;28;20185;-65
2022/11/05 00:25:28;;;;;;;6.05;3.83;;;17.30;61.20;;;;;;5014843;28;20192;-65
2022/11/05 00:28:00;;;;;;;5.03;3.67;;;17.30;60.70;;;;;;5014749;28;20240;-65
2022/11/05 00:30:28;;;;;;;5.72;3.63;;;17.30;60.90;;;;;;5014736;28;20275;-65
2022/11/05 00:32:56;;;;;;;4.75;3.67;;;17.30;60.70;;;;;;5014841;28;20192;-65
2022/11/05 00:35:23;;;;;;;7.45;3.83;;;17.30;60.80;;;;;;5013447;28;20200;-65
2022/11/05 00:37:49;;;;;;;5.68;3.85;;;17.30;60.80;;;;;;5015818;28;20212;-65
2022/11/05 00:40:17;;;;;;;5.80;3.55;;;17.30;60.80;;;;;;5014569;28;20651;-65
2022/11/05 00:45:31;;;;;;;5.15;3.72;;;17.20;60.30;;;;;;5014443;28;20244;-66
2022/11/05 00:50:43;;;;;;;5.97;3.85;;;17.30;60.50;;;;;;5014351;28;20216;-66
2022/11/05 00:53:09;;;;;;;4.85;3.53;;;17.20;60.60;;;;;;5014482;28;20212;-66
2022/11/05 00:55:37;;;;;;;5.80;3.28;;;17.30;60.70;;;;;;5015148;28;20343;-66
2022/11/05 00:58:07;;;;;;;5.50;3.53;;;17.30;60.60;;;;;;5014296;28;20295;-66
2022/11/05 01:00:35;;;;;;;4.68;3.30;;;17.30;60.90;;;;;;5015320;28;20197;-66
2022/11/05 01:03:03;;;;;;;4.68;3.42;;;17.30;60.50;;;;;;5015685;28;20196;-66
2022/11/05 01:05:31;;;;;;;5.18;3.15;;;17.20;60.50;;;;;;5014187;28;20220;-66
2022/11/05 01:07:58;;;;;;;5.60;3.50;;;17.20;61.20;;;;;;5014148;28;20223;-66
2022/11/05 01:10:25;;;;;;;6.20;3.60;;;17.20;60.40;;;;;;5013977;28;20243;-66
2022/11/05 01:12:53;;;;;;;3.55;3.22;;;17.20;60.50;;;;;;5014189;28;20232;-65
2022/11/05 01:15:21;;;;;;;4.38;3.33;;;17.20;60.50;;;;;;5015568;28;20203;-65
2022/11/05 01:17:48;;;;;;;4.78;3.30;;;17.20;60.50;;;;;;5014415;28;20224;-65
2022/11/05 01:20:15;;;;;;;3.95;3.22;;;17.20;60.40;;;;;;5015146;28;20654;-65
2022/11/05 01:22:42;;;;;;;4.60;3.40;;;17.20;60.50;;;;;;5014272;28;20197;-65
2022/11/05 01:25:09;;;;;;;3.05;2.75;;;17.20;60.60;;;;;;5013854;28;20295;-65
2022/11/05 01:27:36;;;;;;;6.25;3.08;;;17.20;60.40;;;;;;5013847;28;20223;-65
2022/11/05 01:30:05;;;;;;;3.97;3.08;;;17.20;60.40;;;;;;5014847;28;20674;-65
2022/11/05 01:32:34;;;;;;;4.63;3.17;;;17.20;60.50;;;;;;5014542;28;20222;-65
2022/11/05 01:35:01;;;;;;;5.03;3.22;;;17.20;60.40;;;;;;5013680;28;20205;-65
2022/11/05 01:37:28;;;;;;;3.55;3.13;;;17.20;60.20;;;;;;5014115;28;20221;-65
2022/11/05 01:39:55;;;;;;;3.10;2.80;;;17.20;60.30;;;;;;5014061;28;20284;-65
2022/11/05 01:42:23;;;;;;;4.30;3.00;;;17.20;60.40;;;;;;5014961;28;20185;-65
2022/11/05 01:44:59;;;;;;;5.47;2.95;;;17.20;60.50;;;;;;4998348;28;20212;-65
2022/11/05 01:47:39;;;;;;;4.75;3.40;;;17.20;60.40;;;;;;5013996;28;20220;-65
2022/11/05 01:50:18;;;;;;;3.97;2.72;;;17.20;60.40;;;;;;5018703;28;20197;-66
2022/11/05 01:52:45;;;;;;;3.92;2.80;;;17.20;60.40;;;;;;5013597;28;20212;-66
2022/11/05 01:55:12;;;;;;;3.97;2.88;;;17.20;60.30;;;;;;5013296;28;20200;-66
2022/11/05 01:57:40;;;;;;;4.03;2.90;;;17.20;60.10;;;;;;5013363;28;20266;-66
2022/11/05 02:00:08;;;;;;;4.97;2.78;;;17.20;60.40;;;;;;5014240;28;20621;-66
2022/11/05 02:02:42;;;;;;;2.90;2.60;;;17.20;60.30;;;;;;5014336;28;20644;-66
2022/11/05 02:05:10;;;;;;;4.38;3.05;;;17.10;61.00;;;;;;5013121;28;20566;-66
2022/11/05 02:07:37;;;;;;;3.17;2.80;;;17.10;60.20;;;;;;5014192;28;20209;-66
2022/11/05 02:10:05;;;;;;;4.03;2.80;;;17.10;60.10;;;;;;5013008;28;20205;-66
2022/11/05 02:12:34;;;;;;;2.67;2.45;;;17.10;60.20;;;;;;5012920;28;20224;-66
2022/11/05 02:15:01;;;;;;;3.72;2.67;;;17.20;60.30;;;;;;5013002;28;20567;-66
2022/11/05 02:17:34;;;;;;;3.95;2.67;;;17.10;60.10;;;;;;5013130;28;20652;-66
2022/11/05 02:20:26;;;;;;;3.55;2.97;;;17.20;60.30;;;;;;5012878;28;20651;-66
2022/11/05 02:23:07;;;;;;;4.28;3.03;;;17.10;60.00;;;;;;5012834;28;20600;-66
2022/11/05 02:25:46;;;;;;;2.97;2.67;;;17.10;60.10;;;;;;5012780;28;20189;-66
2022/11/05 02:28:24;;;;;;;3.63;2.83;;;17.20;60.20;;;;;;5012725;28;20220;-66
2022/11/05 02:30:52;;;;;;;2.92;2.33;;;17.20;60.10;;;;;;5012576;28;20216;-66
2022/11/05 02:33:27;;;;;;;3.40;2.70;;;17.10;60.00;;;;;;5012806;28;20651;-66
2022/11/05 02:36:04;;;;;;;3.63;2.55;;;17.20;60.10;;;;;;5012884;28;20529;-66
2022/11/05 02:38:37;;;;;;;3.28;2.70;;;17.10;60.00;;;;;;5014123;28;20199;-66
2022/11/05 02:41:06;;;;;;;3.55;2.60;;;17.10;60.00;;;;;;5012888;28;20177;-66
2022/11/05 02:43:41;;;;;;;2.97;2.63;;;17.10;60.00;;;;;;5013830;28;20265;-66
2022/11/05 02:46:12;;;;;;;2.75;2.20;;;17.10;60.00;;;;;;5012589;28;20180;-66
2022/11/05 02:48:43;;;;;;;4.38;2.63;;;17.10;60.10;;;;;;5013266;28;20189;-66
2022/11/05 02:51:12;;;;;;;3.92;2.55;;;17.10;60.20;;;;;;5012504;28;20213;-66
2022/11/05 02:53:43;;;;;;;3.33;2.47;;;17.10;60.00;;;;;;5012673;28;20211;-66
2022/11/05 02:56:14;;;;;;;3.67;2.58;;;17.10;60.10;;;;;;5013511;28;20197;-66
2022/11/05 02:58:40;;;;;;;3.92;2.70;;;17.10;60.00;;;;;;5014332;28;20658;-66
2022/11/05 03:01:11;;;;;;;2.85;2.10;;;17.10;60.20;;;;;;5016692;28;20227;-66
2022/11/05 03:03:40;;;;;;;3.22;2.47;;;17.10;60.10;;;;;;5016938;28;20189;-66
2022/11/05 03:06:28;;;;;;;2.58;2.38;;;17.10;60.10;;;;;;5016449;28;20196;-66
2022/11/05 03:09:32;;;;;;;2.50;2.30;;;17.10;60.00;;;;;;5016644;28;20586;-66
2022/11/05 03:12:05;;;;;;;3.17;2.60;;;17.10;60.00;;;;;;5016620;28;20604;-66
2022/11/05 03:14:39;;;;;;;3.33;2.50;;;17.10;60.10;;;;;;5016277;28;20200;-66
2022/11/05 03:17:10;;;;;;;3.35;2.50;;;17.10;60.10;;;;;;5016230;28;20628;-66
2022/11/05 03:19:39;;;;;;;3.13;2.70;;;17.10;61.00;;;;;;5017432;28;20620;-66
2022/11/05 03:22:08;;;;;;;3.15;2.72;;;17.10;60.10;;;;;;5016123;28;20189;-66
2022/11/05 03:24:37;;;;;;;2.30;2.10;;;17.10;60.20;;;;;;5016041;28;20193;-66
2022/11/05 03:27:05;;;;;;;2.30;2.10;;;17.10;60.10;;;;;;5015794;28;20749;-66
2022/11/05 03:29:34;;;;;;;2.42;2.20;;;17.10;60.10;;;;;;5000322;28;20298;-66
2022/11/05 03:32:01;;;;;;;2.65;2.38;;;17.10;60.10;;;;;;5070218;22;20686;-69
2022/11/05 03:34:31;;;;;;;2.90;2.35;;;17.00;60.10;;;;;;5019659;28;20196;-69
2022/11/05 03:36:58;;;;;;;2.17;2.00;;;17.10;60.10;;;;;;5036783;28;20215;-69
2022/11/05 03:39:28;;;;;;;3.47;2.40;;;17.10;60.10;;;;;;5019176;28;20195;-69
2022/11/05 03:41:56;;;;;;;2.42;2.22;;;17.10;60.10;;;;;;5036812;28;20184;-69
2022/11/05 03:44:25;;;;;;;2.55;2.33;;;17.10;60.10;;;;;;5036729;28;20196;-69
2022/11/05 03:46:53;;;;;;;3.17;2.30;;;17.10;60.10;;;;;;5049452;22;20433;-69
2022/11/05 03:49:22;;;;;;;2.38;2.15;;;17.10;60.00;;;;;;5076327;22;20690;-70
2022/11/05 03:51:53;;;;;;;2.63;2.22;;;17.00;60.00;;;;;;5016962;28;20220;-68
2022/11/05 03:54:21;;;;;;;2.42;2.20;;;17.10;60.00;;;;;;5016885;28;20173;-68
2022/11/05 03:56:53;;;;;;;2.40;2.20;;;17.10;60.00;;;;;;4999325;28;20681;-68
2022/11/05 03:59:19;;;;;;;2.30;2.10;;;17.10;60.00;;;;;;4999408;28;20192;-68
2022/11/05 04:01:47;;;;;;;2.40;2.20;;;17.00;59.90;;;;;;4999201;28;20209;-68
2022/11/05 04:04:14;;;;;;;2.67;2.30;;;17.10;59.90;;;;;;4999238;28;20551;-68
2022/11/05 04:14:56;;;;;;;2.72;1.80;;;17.10;59.90;;;;;;4999704;28;20249;-68
2022/11/05 04:17:22;;;;;;;2.88;1.77;;;17.10;59.90;;;;;;4998695;28;20677;-68
2022/11/05 04:25:20;;;;;;;2.55;2.20;;;17.10;60.00;;;;;;4998818;28;20569;-68
2022/11/05 04:27:47;;;;;;;2.70;2.28;;;17.10;60.10;;;;;;4998800;28;20212;-68
2022/11/05 04:30:17;;;;;;;2.97;1.88;;;17.10;60.00;;;;;;4999332;28;20279;-68
2022/11/05 04:32:55;;;;;;;2.33;1.80;;;17.10;60.00;;;;;;4998443;28;20694;-68
2022/11/05 04:35:23;;;;;;;2.22;2.03;;;17.10;59.90;;;;;;4999211;28;20196;-68
2022/11/05 04:37:50;;;;;;;3.05;2.15;;;17.20;60.00;;;;;;4998464;28;20217;-68
2022/11/05 04:40:17;;;;;;;2.72;1.92;;;17.20;60.00;;;;;;4999064;28;20222;-68
2022/11/05 04:42:45;;;;;;;3.53;2.20;;;17.20;60.00;;;;;;5015891;28;20239;-68
2022/11/05 04:45:12;;;;;;;2.03;1.83;;;17.20;60.00;;;;;;4998405;28;20200;-68
2022/11/05 04:47:39;;;;;;;2.95;2.08;;;17.30;60.00;;;;;;4998202;28;20221;-68
2022/11/05 04:50:07;;;;;;;2.30;1.85;;;17.30;59.90;;;;;;4998163;28;20216;-68
2022/11/05 04:52:34;;;;;;;2.47;1.92;;;17.30;59.80;;;;;;4982230;28;20220;-68
2022/11/05 04:55:01;;;;;;;2.45;1.92;;;17.40;59.80;;;;;;4998421;28;20200;-68
2022/11/05 04:57:29;;;;;;;2.45;1.90;;;17.30;59.60;;;;;;4998065;28;20227;-68
2022/11/05 04:59:57;;;;;;;2.70;2.10;;;17.40;59.60;;;;;;4998147;28;20297;-68
2022/11/05 05:02:24;;;;;;;1.95;1.85;;;17.40;59.60;;;;;;5015623;28;20189;-68
2022/11/05 05:04:51;;;;;;;2.53;1.90;;;17.40;59.60;;;;;;4998054;28;20197;-70
2022/11/05 05:07:18;;;;;;;2.10;1.90;;;17.50;59.50;;;;;;4997856;28;20224;-70
2022/11/05 05:09:45;;;;;;;2.22;1.77;;;17.50;59.50;;;;;;4997875;28;20282;-70
2022/11/05 05:12:13;;;;;;;2.00;1.80;;;17.40;59.40;;;;;;4997760;28;20235;-70
2022/11/05 05:14:40;;;;;;;2.72;1.98;;;17.50;59.50;;;;;;5015252;28;20196;-70
2022/11/05 05:17:08;;;;;;;2.03;1.83;;;17.50;59.50;;;;;;4997630;28;20217;-70
2022/11/05 05:22:16;;;;;;;1.88;1.65;;;17.40;59.30;;;;;;4996410;28;20204;-70
2022/11/05 05:24:44;;;;;;;2.30;2.03;;;17.50;59.40;;;;;;4998048;28;20575;-70
2022/11/05 05:27:10;;;;;;;2.20;2.00;;;17.50;59.30;;;;;;4997712;28;20212;-70
2022/11/05 05:29:38;;;;;;;2.40;2.10;;;17.50;59.30;;;;;;5016016;28;20252;-70
2022/11/05 05:32:05;;;;;;;2.90;1.83;;;17.40;59.20;;;;;;4997440;28;20229;-70
2022/11/05 05:34:34;;;;;;;1.77;1.50;;;17.50;59.30;;;;;;5015106;28;20197;-70
2022/11/05 05:37:01;;;;;;;1.70;1.60;;;17.40;59.20;;;;;;4997974;28;20691;-70
2022/11/05 05:39:28;;;;;;;2.20;1.73;;;17.50;59.30;;;;;;5015326;28;20203;-70
2022/11/05 05:41:55;;;;;;;1.92;1.75;;;17.40;59.10;;;;;;5015120;28;20189;-70
2022/11/05 05:44:22;;;;;;;1.70;1.60;;;17.50;59.10;;;;;;4998058;28;20205;-70
2022/11/05 05:46:49;;;;;;;1.98;1.70;;;17.40;59.10;;;;;;4997150;28;20275;-70
2022/11/05 05:49:16;;;;;;;1.92;1.73;;;17.40;59.10;;;;;;4997720;28;20617;-70
2022/11/05 05:51:45;;;;;;;2.00;1.80;;;17.40;59.20;;;;;;4997083;28;20647;-70
2022/11/05 05:54:11;;;;;;;2.45;1.50;;;17.40;59.20;;;;;;4997103;28;20208;-70
2022/11/05 05:56:39;;;;;;;1.77;1.58;;;17.40;59.20;;;;;;4996869;28;20705;-70
2022/11/05 05:59:06;;;;;;;1.65;1.55;;;17.40;59.30;;;;;;4997018;28;20258;-70
2022/11/05 06:01:33;;;;;;;1.70;1.60;;;17.40;59.30;;;;;;4996906;28;20201;-70
2022/11/05 06:04:00;;;;;;;2.10;1.73;;;17.40;59.40;;;;;;5014355;28;20677;-70
2022/11/05 06:06:27;;;;;;;3.03;1.60;;;17.30;59.30;;;;;;5014801;28;20213;-70
2022/11/05 06:08:56;;;;;;;1.65;1.52;;;17.40;59.40;;;;;;4996849;28;20200;-71
2022/11/05 06:11:23;;;;;;;1.75;1.55;;;17.30;59.30;;;;;;4996797;28;20203;-71
2022/11/05 06:13:50;;;;;;;2.20;1.70;;;17.40;59.40;;;;;;4996923;28;20248;-71
2022/11/05 06:16:19;;;;;;;2.20;1.80;;;17.30;59.30;;;;;;4996780;28;20208;-71
2022/11/05 06:18:46;;;;;;;2.67;1.60;;;17.30;59.30;;;;;;4996725;28;20220;-71
2022/11/05 06:21:14;;;;;;;2.15;1.70;;;17.30;59.30;;;;;;4996649;28;20200;-71
2022/11/05 06:23:43;;;;;;;2.00;1.58;;;17.30;59.40;;;;;;4996553;28;20193;-71
2022/11/05 06:26:13;;;;;;;2.47;1.90;;;17.30;59.50;;;;;;4996532;28;20205;-70
2022/11/05 06:28:40;;;;;;;2.45;2.15;;;17.30;59.50;;;;;;4996350;28;20201;-70
2022/11/05 06:31:07;;;;;;;2.55;2.00;;;17.30;59.50;;;;;;5013989;28;20562;-70
2022/11/05 06:33:35;;;;;;;3.05;2.00;;;17.30;59.50;;;;;;5013225;28;20690;-70
2022/11/05 06:36:02;;;;;;;2.38;2.08;;;17.30;59.50;;;;;;4996453;28;20209;-71
2022/11/05 06:38:30;;;;;;;2.13;1.73;;;17.30;59.50;;;;;;4996769;28;20196;-71
2022/11/05 06:40:58;;;;;;;2.20;2.00;;;17.30;59.70;;;;;;4996524;28;20197;-71
2022/11/05 06:43:26;;;;;;;2.53;2.25;;;17.30;59.70;;;;;;4996193;28;20211;-71
2022/11/05 06:45:54;;;;;;;2.47;2.25;;;17.20;59.60;;;;;;4996377;28;20208;-71
2022/11/05 06:48:21;;;;;;;2.20;2.03;;;17.20;59.60;;;;;;4996363;28;20224;-71
2022/11/05 06:50:48;;;;;;;2.35;2.15;;;17.20;59.70;;;;;;5013865;28;20612;-71
2022/11/05 06:53:15;;;;;;;2.78;2.55;;;17.20;59.60;;;;;;5013741;28;20208;-71
2022/11/05 06:55:46;;;;;;;2.60;2.38;;;17.20;59.70;;;;;;4996744;28;20200;-70
2022/11/05 06:58:13;;;;;;;3.10;2.80;;;17.20;59.70;;;;;;4996311;28;20216;-70
2022/11/05 07:00:42;;;;;;;2.95;2.65;;;17.20;59.60;;;;;;4996494;28;20196;-70
2022/11/05 07:03:10;;;;;;;4.00;3.60;;;17.20;59.70;;;;;;4996566;28;20563;-70
2022/11/05 07:05:39;;;;;;;3.08;2.88;;;17.20;59.60;;;;;;5014635;28;20223;-70
2022/11/05 07:08:06;;;;;;;3.35;3.05;;;17.20;60.10;;;;;;4997052;28;20220;-70
2022/11/05 07:10:33;;;;;;;3.33;3.03;;;17.20;59.50;;;;;;4996526;28;20655;-70
2022/11/05 07:13:00;;;;;;;3.00;2.70;;;17.30;59.70;;;;;;4996172;28;20216;-70
2022/11/05 07:15:29;;;;;;;3.00;2.72;;;17.30;59.80;;;;;;4996216;28;20203;-70
2022/11/05 07:17:58;;;;;;;3.28;2.90;;;17.30;59.70;;;;;;4980353;28;20706;-70
2022/11/05 07:20:25;;;;;;;3.30;3.00;;;17.30;59.70;;;;;;4996265;28;20208;-70
2022/11/05 07:22:59;;;;;;;3.40;2.83;;;17.40;59.60;;;;;;5013802;28;20185;-70
2022/11/05 07:25:27;;;;;;;4.85;3.78;;;17.40;59.50;;;;;;4996161;28;20207;-70
2022/11/05 07:27:53;;;;;;;4.45;3.67;;;17.40;59.40;;;;;;4996789;28;20216;-70
2022/11/05 07:30:21;;;;;;;3.50;3.20;;;17.40;59.40;;;;;;4996097;28;20200;-70
2022/11/05 07:32:47;;;;;;;3.47;3.17;;;17.40;59.20;;;;;;5013809;28;20212;-70
2022/11/05 07:35:16;;;;;;;4.13;3.72;;;17.40;59.20;;;;;;4996127;28;20197;-70
2022/11/05 07:37:43;;;;;;;4.10;3.70;;;17.50;59.20;;;;;;4996196;28;20221;-70
2022/11/05 07:40:11;;;;;;;3.33;3.08;;;17.50;59.20;;;;;;4996161;28;20197;-70
2022/11/05 07:42:38;;;;;;;4.18;3.78;;;17.50;59.10;;;;;;4995959;28;20589;-70
2022/11/05 07:45:06;;;;;;;4.05;3.75;;;17.50;59.10;;;;;;4998150;28;20741;-70
2022/11/05 07:47:33;;;;;;;3.58;3.28;;;17.50;59.10;;;;;;5016485;28;20228;-70
2022/11/05 07:49:59;;;;;;;3.53;3.22;;;17.50;58.90;;;;;;4999510;28;20216;-70
2022/11/05 07:52:28;;;;;;;3.60;3.30;;;17.60;59.00;;;;;;4999335;28;20219;-70
2022/11/05 07:54:55;;;;;;;3.60;3.30;;;17.60;59.00;;;;;;4999568;28;20201;-70
2022/11/05 07:57:22;;;;;;;4.10;3.70;;;17.60;59.00;;;;;;4999594;28;20691;-70
2022/11/05 07:59:49;;;;;;;3.58;3.28;;;17.60;58.90;;;;;;4999492;28;20204;-70
2022/11/05 08:02:16;;;;;;;4.22;3.83;;;17.60;58.90;;;;;;5001465;28;20196;-70
2022/11/05 08:04:43;;;;;;;3.58;3.28;;;17.60;58.80;;;;;;4999423;28;20203;-70
2022/11/05 08:07:10;;;;;;;3.15;2.85;;;17.60;58.90;;;;;;4999343;28;20267;-70
2022/11/05 08:09:38;;;;;;;4.20;3.50;;;17.50;58.70;;;;;;4999402;28;20651;-70
2022/11/05 08:12:07;;;;;;;3.08;2.88;;;17.60;58.80;;;;;;4999213;28;20205;-70
2022/11/05 08:14:34;;;;;;;4.13;3.70;;;17.60;58.90;;;;;;4999922;28;20217;-70
2022/11/05 08:17:01;;;;;;;4.60;4.18;;;17.60;58.90;;;;;;4999545;28;20225;-70
2022/11/05 08:19:28;;;;;;;3.58;3.28;;;17.60;58.90;;;;;;4999707;28;20197;-70
2022/11/05 08:21:55;;;;;;;2.95;2.65;;;17.60;58.90;;;;;;5000918;28;20200;-70
2022/11/05 08:24:22;;;;;;;4.72;4.22;;;17.60;58.90;;;;;;4986275;28;20199;-71
2022/11/05 08:26:50;;;;;;;4.45;2.83;;;17.60;59.00;;;;;;5005014;28;20230;-70
2022/11/05 08:29:17;;;;;;;4.63;3.25;;;17.60;58.90;;;;;;4986223;28;20200;-68
2022/11/05 08:31:45;;;;;;;2.63;2.42;;;17.50;59.00;;;;;;4999002;28;20239;-68
2022/11/05 08:34:12;;;;;;;2.65;2.45;;;17.50;59.00;;;;;;4998835;28;20205;-69
2022/11/05 08:36:42;;;;;;;2.50;2.17;;;17.50;58.90;;;;;;5016249;28;20216;-70
2022/11/05 08:39:09;;;;;;;2.80;2.60;;;17.50;58.90;;;;;;4998522;28;20197;-70
2022/11/05 08:41:36;;;;;;;3.10;2.80;;;17.50;58.90;;;;;;4998227;28;20667;-70
2022/11/05 08:44:04;;;;;;;2.83;2.53;;;17.50;58.80;;;;;;4998317;28;20628;-70
2022/11/05 08:46:31;;;;;;;3.15;2.83;;;17.50;58.90;;;;;;4998330;28;20286;-70
2022/11/05 08:48:58;;;;;;;2.28;2.08;;;17.50;58.80;;;;;;4998012;28;20624;-70
2022/11/05 08:51:26;;;;;;;2.25;2.00;;;17.50;58.70;;;;;;4998034;28;20235;-70
2022/11/05 08:53:53;;;;;;;2.35;2.03;;;17.50;58.80;;;;;;5015819;28;20227;-69
2022/11/05 08:56:22;;;;;;;2.35;2.15;;;17.50;58.60;;;;;;4997394;28;20197;-69
2022/11/05 08:58:49;;;;;;;2.08;1.88;;;17.50;58.60;;;;;;4998534;28;20559;-69
2022/11/05 09:01:18;;;;;;;1.90;1.80;;;17.50;58.70;;;;;;4998010;28;20269;-70
2022/11/05 09:03:45;;;;;;;2.05;1.95;;;17.50;58.70;;;;;;4997882;28;20284;-70
2022/11/05 09:06:13;;;;;;;2.03;1.83;;;17.50;58.60;;;;;;4997862;28;20204;-70
2022/11/05 09:08:40;;;;;;;2.03;1.83;;;17.50;59.20;;;;;;4997884;28;20574;-70
2022/11/05 09:11:07;;;;;;;2.28;2.08;;;17.50;58.30;;;;;;4997820;28;20284;-70
2022/11/05 09:13:34;;;;;;;1.98;1.70;;;17.50;58.50;;;;;;4998371;28;20224;-69
2022/11/05 09:16:01;;;;;;;2.15;1.85;;;17.50;58.80;;;;;;4997793;28;20211;-69
2022/11/05 09:18:29;;;;;;;6.25;2.47;;;17.50;58.80;;;;;;5015185;28;20219;-70
2022/11/05 09:20:56;;;;;;;2.67;2.08;;;17.50;59.10;;;;;;4997598;28;20211;-70
2022/11/05 09:23:23;;;;;;;2.60;2.40;;;17.50;59.50;;;;;;4997581;28;20220;-69
2022/11/05 09:25:50;;;;;;;3.13;1.95;;;17.50;60.60;;;;;;4998647;28;20207;-69
2022/11/05 09:28:18;;;;;;;1.95;1.85;;;17.50;60.60;;;;;;4997665;28;20227;-69
2022/11/05 09:30:46;;;;;;;2.92;2.00;;;17.50;60.50;;;;;;4997479;28;20201;-71
2022/11/05 09:33:13;;;;;;;2.05;1.80;;;17.50;60.00;;;;;;4997395;28;20216;-70
2022/11/05 09:35:42;;;;;;;2.22;2.00;;;17.60;60.30;;;;;;4997309;28;20201;-70
2022/11/05 09:38:09;;;;;;;2.08;1.80;;;17.60;59.80;;;;;;4998062;28;20220;-70
2022/11/05 09:40:37;;;;;;;2.90;2.03;;;17.70;60.00;;;;;;4998352;28;20569;-70
2022/11/05 09:43:04;;;;;;;2.45;2.15;;;17.80;60.20;;;;;;4997316;28;20193;-70
2022/11/05 09:45:32;;;;;;;2.55;1.80;;;17.80;60.00;;;;;;4997058;28;20251;-70
2022/11/05 09:48:00;;;;;;;2.53;2.10;;;17.90;59.90;;;;;;4997392;28;20583;-70
2022/11/05 09:50:32;;;;;;;5.18;2.30;;;17.90;59.80;;;;;;4997282;28;20557;-70
2022/11/05 09:53:00;;;;;;;2.40;2.20;;;17.90;59.70;;;;;;4997083;28;20193;-70
2022/11/05 09:55:29;;;;;;;2.05;1.85;;;17.90;59.60;;;;;;4997037;28;20196;-70
2022/11/05 09:57:57;;;;;;;3.38;2.10;;;18.00;59.60;;;;;;4997127;28;20224;-70
2022/11/05 10:00:24;;;;;;;2.20;2.00;;;18.00;59.40;;;;;;4996819;28;20208;-70
2022/11/05 10:02:54;;;;;;;2.47;2.22;;;18.00;59.60;;;;;;4996966;28;20277;-70
2022/11/05 10:05:22;;;;;;;3.35;2.35;;;18.10;59.50;;;;;;4996908;28;20709;-70
2022/11/05 10:07:50;;;;;;;3.10;2.80;;;18.10;59.50;;;;;;5013345;28;20204;-70
2022/11/05 10:10:32;;;;;;;2.75;2.40;;;18.10;59.40;;;;;;4996880;28;20196;-70
2022/11/05 10:13:01;;;;;;;3.25;2.63;;;18.10;59.40;;;;;;4996751;28;20192;-70
2022/11/05 10:15:29;;;;;;;4.28;2.35;;;18.20;59.50;;;;;;4980707;28;20201;-70
2022/11/05 10:17:58;;;;;;;4.38;2.42;;;18.20;59.30;;;;;;4996669;28;20221;-69
2022/11/05 10:20:29;;;;;;;3.30;3.00;;;18.20;59.40;;;;;;5014225;28;20562;-69
2022/11/05 10:22:58;;;;;;;3.85;2.85;;;18.20;58.80;;;;;;5014693;28;20181;-69
2022/11/05 10:25:29;;;;;;;3.13;2.83;;;18.30;58.90;;;;;;5014385;28;20189;-69
2022/11/05 10:27:57;;;;;;;4.28;2.85;;;18.20;58.80;;;;;;4997079;28;20233;-69
2022/11/05 10:30:24;;;;;;;4.00;3.60;;;18.30;58.70;;;;;;4997085;28;20201;-69
2022/11/05 10:32:53;;;;;;;3.72;2.78;;;18.30;58.80;;;;;;5014130;28;20243;-69
2022/11/05 10:35:21;;;;;;;4.30;3.10;;;18.30;58.90;;;;;;4981655;28;20247;-69
2022/11/05 10:37:48;;;;;;;3.45;2.17;;;18.30;58.90;;;;;;5014414;28;20216;-70
2022/11/05 10:40:18;;;;;;;3.10;2.72;;;18.30;59.00;;;;;;4997419;28;20201;-70
2022/11/05 10:42:53;;;;;;;4.40;3.72;;;18.30;58.90;;;;;;4997738;28;20192;-70
2022/11/05 10:45:25;;;;;;;3.38;3.05;;;18.30;57.60;;;;;;4996901;28;20203;-70
2022/11/05 10:47:58;;;;;;;4.72;3.17;;;18.20;57.80;;;;;;5014217;28;20247;-70
2022/11/05 10:50:26;;;;;;;7.13;3.90;;;18.20;58.10;;;;;;5014771;28;20252;-70
2022/11/05 10:52:57;;;;;;;5.85;4.60;;;18.30;58.10;;;;;;4996304;28;20215;-70
2022/11/05 10:55:25;;;;;;;5.47;3.97;;;18.20;57.70;;;;;;4996499;28;20632;-70
2022/11/05 10:57:56;;;;;;;6.45;4.00;;;18.20;57.70;;;;;;4996400;28;20306;-70
2022/11/05 11:00:27;;;;;;;7.00;4.57;;;18.20;57.60;;;;;;4996680;28;20254;-70
2022/11/05 11:02:55;;;;;;;7.38;5.15;;;18.30;57.90;;;;;;4996381;28;20251;-70
2022/11/05 11:05:25;;;;;;;4.97;4.05;;;18.30;57.90;;;;;;4996925;28;20192;-70
2022/11/05 11:08:02;;;;;;;5.63;4.38;;;18.30;57.90;;;;;;4996527;28;20220;-70
2022/11/05 11:10:30;;;;;;;7.43;3.90;;;18.30;57.70;;;;;;4996147;28;20196;-70
2022/11/05 11:12:59;;;;;;;6.07;3.67;;;18.30;57.70;;;;;;4997011;28;20212;-70
2022/11/05 11:15:27;;;;;;;7.45;3.33;;;18.30;57.70;;;;;;4996654;28;20297;-70
2022/11/05 11:17:55;;;;;;;5.70;3.40;;;18.30;57.80;;;;;;4996222;28;20217;-70
2022/11/05 11:20:25;;;;;;;4.55;3.20;;;18.30;57.80;;;;;;4998826;28;20204;-70
2022/11/05 11:23:03;;;;;;;4.20;3.45;;;18.30;57.80;;;;;;4999917;28;20207;-70
2022/11/05 11:25:33;;;;;;;6.85;3.45;;;18.30;57.70;;;;;;5000125;28;20284;-70
2022/11/05 11:28:05;;;;;;;5.30;3.33;;;18.30;57.70;;;;;;5017464;28;20212;-70
2022/11/05 11:30:33;;;;;;;3.55;3.17;;;18.30;57.70;;;;;;4999762;28;20204;-70
2022/11/05 11:33:06;;;;;;;4.15;3.75;;;18.30;57.50;;;;;;4999722;28;20200;-70
2022/11/05 11:35:33;;;;;;;4.68;3.70;;;18.40;57.60;;;;;;4999758;28;20217;-70
2022/11/05 11:38:02;;;;;;;4.80;3.00;;;18.40;57.60;;;;;;5017106;28;20217;-70
2022/11/05 11:40:30;;;;;;;4.78;3.38;;;18.40;57.50;;;;;;4999472;28;20717;-70
2022/11/05 11:42:59;;;;;;;3.60;3.30;;;18.40;57.60;;;;;;4999485;28;20201;-70
2022/11/05 11:45:29;;;;;;;3.85;3.25;;;18.50;57.50;;;;;;5017039;28;20215;-69
2022/11/05 11:47:56;;;;;;;3.63;3.00;;;18.50;57.40;;;;;;4983434;28;20221;-70
2022/11/05 11:50:35;;;;;;;3.90;3.30;;;18.50;57.10;;;;;;4999567;28;20221;-70
2022/11/05 11:53:26;;;;;;;3.55;3.17;;;18.60;57.10;;;;;;5016992;28;20196;-70
2022/11/05 11:55:58;;;;;;;5.40;3.20;;;18.60;57.00;;;;;;4999364;28;20201;-70
2022/11/05 11:58:39;;;;;;;3.47;3.13;;;18.60;56.90;;;;;;4999209;28;20221;-70
2022/11/05 12:01:40;;;;;;;3.80;3.22;;;18.60;56.70;;;;;;5016997;28;20177;-70
2022/11/05 12:04:25;;;;;;;5.00;2.95;;;18.60;56.60;;;;;;4944120;28;20195;-70
2022/11/05 12:06:59;;;;;;;4.88;4.03;;;18.70;56.70;;;;;;5012545;28;20232;-70
2022/11/05 12:09:29;;;;;;;6.88;3.42;;;18.60;56.50;;;;;;4999086;28;20204;-70
2022/11/05 12:12:00;;;;;;;6.25;4.18;;;18.60;56.60;;;;;;4999249;28;20251;-70
2022/11/05 12:14:31;;;;;;;6.45;3.83;;;18.60;56.70;;;;;;4999141;28;20224;-70
2022/11/05 12:17:11;;;;;;;7.35;4.25;;;18.80;57.10;;;;;;4998960;28;20213;-69
2022/11/05 12:19:56;;;;;;;8.52;4.10;;;18.80;57.20;;;;;;4998889;28;20198;-69
2022/11/05 12:22:29;;;;;;;7.00;3.90;;;18.80;57.10;;;;;;4998876;28;20216;-69
2022/11/05 12:25:16;;;;;;;4.25;2.95;;;18.80;57.40;;;;;;4998834;28;20284;-69
2022/11/05 12:28:00;;;;;;;3.63;3.08;;;18.90;56.80;;;;;;4998602;28;20221;-69
2022/11/05 12:30:27;;;;;;;4.70;2.95;;;18.90;56.60;;;;;;4997902;28;20668;-69
2022/11/05 12:33:24;;;;;;;3.80;2.95;;;19.00;56.40;;;;;;4999585;28;20205;-70
2022/11/05 12:36:05;;;;;;;4.30;2.95;;;19.00;56.40;;;;;;4998598;28;20222;-70
2022/11/05 12:38:54;;;;;;;6.18;2.85;;;19.00;57.00;;;;;;4999736;28;20188;-70
2022/11/05 12:41:24;;;;;;;4.38;2.90;;;19.10;57.10;;;;;;4998543;28;20193;-70
2022/11/05 12:44:00;;;;;;;4.85;3.10;;;19.10;57.10;;;;;;4998394;28;20200;-69
2022/11/05 12:46:29;;;;;;;5.97;3.53;;;19.10;56.70;;;;;;4998456;28;20274;-70
2022/11/05 12:49:05;;;;;;;6.22;3.70;;;19.20;59.60;;;;;;5016453;28;20204;-70
2022/11/05 12:51:39;;;;;;;5.10;3.22;;;19.20;59.90;;;;;;4998765;28;20200;-70
2022/11/05 12:54:12;;;;;;;8.52;3.38;;;19.20;59.80;;;;;;5016001;28;20207;-70
2022/11/05 12:56:41;;;;;;;4.40;3.15;;;19.20;59.30;;;;;;4998120;28;20232;-70
2022/11/05 12:59:12;;;;;;;4.53;3.42;;;19.20;59.10;;;;;;4998376;28;20196;-70
2022/11/05 13:01:41;;;;;;;5.75;3.70;;;19.20;59.10;;;;;;4997961;28;20196;-70
2022/11/05 13:04:14;;;;;;;5.43;3.40;;;19.20;58.70;;;;;;4997884;28;20713;-70
2022/11/05 13:06:43;;;;;;;5.43;3.10;;;19.20;58.70;;;;;;5015503;28;20213;-70
2022/11/05 13:09:13;;;;;;;3.78;3.38;;;19.20;58.70;;;;;;5015476;28;20199;-70
2022/11/05 13:11:43;;;;;;;5.00;3.10;;;19.20;58.70;;;;;;5015824;28;20204;-70
2022/11/05 13:14:13;;;;;;;3.63;3.33;;;19.20;58.50;;;;;;4997720;28;20209;-70
2022/11/05 13:16:41;;;;;;;4.18;3.00;;;19.20;58.60;;;;;;4997678;28;20228;-70
2022/11/05 13:19:15;;;;;;;4.50;3.42;;;19.20;58.80;;;;;;4997680;28;20592;-70
2022/11/05 13:21:42;;;;;;;4.80;2.97;;;19.10;58.60;;;;;;5015267;28;20176;-70
2022/11/05 13:24:13;;;;;;;6.13;3.20;;;19.10;58.60;;;;;;4997550;28;20197;-70
2022/11/05 13:26:43;;;;;;;6.10;3.10;;;19.10;58.60;;;;;;4998066;28;20274;-70
2022/11/05 13:29:13;;;;;;;3.90;3.30;;;19.10;58.50;;;;;;5015383;28;20177;-69
2022/11/05 13:31:41;;;;;;;3.53;3.20;;;19.00;58.40;;;;;;5015140;28;20225;-69
2022/11/05 13:34:11;;;;;;;4.43;2.80;;;19.00;58.40;;;;;;4998134;28;20670;-69
2022/11/05 13:39:32;;;;;;;4.47;3.28;;;19.00;58.70;;;;;;5014929;28;20693;-69
2022/11/05 13:42:44;;;;;;;4.68;2.92;;;19.00;58.40;;;;;;4997162;28;20204;-69